Tuesday, June 19, 2018, 12:50 AM EDT
Back to Local

KHWV, Shirley Brookhaven Airport

Location: Shirley, NY, United States Lat: 40.817
Local Time: 12:50 AM EDT ( 4:50 GMT) Lon: -72.867
Time Zone: US/Eastern Elev: 82 ft

Show me the last for .
Show Decoded

2018-06-18 23:56 METAR KHWV 190356Z AUTO 21006KT 10SM CLR 23/21 A2978 RMK AO2 SLP082 T02280206
                 TSNO =
2018-06-18 22:56 METAR KHWV 190256Z AUTO 23009KT 10SM CLR 22/20 A2980 RMK AO2 RAB06E17 SLP091
                 P0000 60000 T02220200 58009 TSNO =
2018-06-18 21:56 METAR KHWV 190156Z AUTO 22009G16KT 10SM BKN046 OVC060 24/17 A2985 RMK AO2 SLP108
                 T02390172 TSNO =
2018-06-18 20:56 METAR KHWV 190056Z AUTO 21011G18KT 10SM CLR 23/18 A2982 RMK AO2 SLP096 T02280178
                 TSNO =
2018-06-18 19:56 METAR KHWV 182356Z AUTO 21011G18KT 10SM CLR 23/18 A2983 RMK AO2 SLP101 T02280183
                 10267 20228 55018 TSNO =
2018-06-18 18:56 METAR KHWV 182256Z AUTO 21012KT 10SM CLR 23/20 A2983 RMK AO2 PK WND 23026/2211
                 SLP099 T02280200 TSNO =
2018-06-18 17:56 METAR KHWV 182156Z AUTO 21016G24KT 10SM CLR 24/20 A2985 RMK AO2 SLP108 T02440200
                 TSNO =
2018-06-18 16:56 METAR KHWV 182056Z AUTO 20014G27KT 10SM CLR 25/19 A2989 RMK AO2 PK WND
                 22027/2048 SLP119 T02500194 56025 TSNO =
2018-06-18 15:56 METAR KHWV 181956Z AUTO 20011G18KT 10SM CLR 25/19 A2990 RMK AO2 SLP123 T02500194
                 TSNO =
2018-06-18 14:56 METAR KHWV 181856Z AUTO 20017G23KT 10SM CLR 25/20 A2993 RMK AO2 SLP135 T02500200
                 TSNO =
2018-06-18 13:56 METAR KHWV 181756Z AUTO 20010KT 10SM CLR 26/21 A2996 RMK AO2 SLP144 T02610206
                 10267 20217 58015 TSNO =
2018-06-18 12:56 METAR KHWV 181656Z AUTO 20015G21KT 10SM CLR 26/20 A2998 RMK AO2 SLP152 T02610200
                 TSNO =
2018-06-18 11:56 METAR KHWV 181556Z AUTO 19013G18KT 10SM CLR 26/21 A3000 RMK AO2 SLP157 T02610206
                 TSNO =
2018-06-18 10:56 METAR KHWV 181456Z AUTO 19015G19KT 10SM CLR 25/21 A3000 RMK AO2 SLP159 T02500206
                 58016 TSNO =
2018-06-18 09:56 METAR KHWV 181356Z AUTO 20009KT 10SM CLR 25/21 A3002 RMK AO2 SLP164 T02500206
                 TSNO =
2018-06-18 09:04 METAR KHWV 181304Z AUTO 22009KT 10SM SCT007 23/21 A3004 RMK AO2 T02330211 TSNO =
2018-06-18 08:56 METAR KHWV 181256Z AUTO 21012KT 10SM BKN007 23/21 A3004 RMK AO2 SLP170 T02280211
                 TSNO =
2018-06-18 07:56 METAR KHWV 181156Z AUTO 21008KT 10SM OVC006 22/21 A3005 RMK AO2 SLP174 T02170211
                 10217 20200 56005 TSNO =
2018-06-18 07:25 METAR KHWV 181125Z AUTO 20007KT 10SM BKN007 22/21 A3005 RMK AO2 T02170211 TSNO =
2018-06-18 07:09 METAR KHWV 181109Z AUTO 21007KT 10SM FEW006 21/21 A3005 RMK AO2 T02110206 TSNO =
2018-06-18 06:56 METAR KHWV 181056Z AUTO 20007KT 10SM CLR 21/21 A3005 RMK AO2 SLP176 T02110206
                 TSNO =
2018-06-18 06:09 METAR KHWV 181009Z AUTO 20008KT 9SM FEW003 20/20 A3005 RMK AO2 T02000200 TSNO =
2018-06-18 05:56 METAR KHWV 180956Z AUTO 20007KT 10SM CLR 20/20 A3005 RMK AO2 SLP175 T02000200
                 TSNO =
2018-06-18 04:56 METAR KHWV 180856Z AUTO 21004KT 10SM CLR 20/20 A3006 RMK AO2 SLP179 T02000200
                 56003 TSNO =
2018-06-18 03:56 METAR KHWV 180756Z AUTO 20006KT 10SM CLR 21/20 A3007 RMK AO2 SLP180 T02060200
                 TSNO =
2018-06-18 02:56 METAR KHWV 180656Z AUTO 22005KT 10SM CLR 21/20 A3007 RMK AO2 SLP181 T02110200
                 TSNO =
2018-06-18 01:56 METAR KHWV 180556Z AUTO 22006KT 10SM CLR 21/19 A3007 RMK AO2 SLP183 60000
                 T02110194 10222 20200 58002 TSNO =
2018-06-18 00:56 METAR KHWV 180456Z AUTO 21007KT 10SM CLR 21/19 A3008 RMK AO2 SLP185 T02110189
                 403060139 TSNO =

Support USWX by starting your Amazon purchase here.